sensor_id;sensor_type;location;lat;lon;timestamp;pressure;altitude;pressure_sealevel;temperature;humidity
38786;BME280;24535;45.508;12.252;2023-07-29T00:01:07;101212.59;;;28.16;56.05
38786;BME280;24535;45.508;12.252;2023-07-29T00:03:35;101212.19;;;28.13;56.18
38786;BME280;24535;45.508;12.252;2023-07-29T00:06:00;101209.88;;;28.09;56.47
38786;BME280;24535;45.508;12.252;2023-07-29T00:08:25;101214.25;;;28.10;55.43
38786;BME280;24535;45.508;12.252;2023-07-29T00:10:51;101215.72;;;28.13;55.37
38786;BME280;24535;45.508;12.252;2023-07-29T00:13:17;101211.97;;;28.14;56.14
38786;BME280;24535;45.508;12.252;2023-07-29T00:15:42;101204.66;;;28.15;56.30
38786;BME280;24535;45.508;12.252;2023-07-29T00:18:08;101216.34;;;28.15;56.15
38786;BME280;24535;45.508;12.252;2023-07-29T00:20:33;101203.00;;;28.14;56.40
38786;BME280;24535;45.508;12.252;2023-07-29T00:22:58;101212.19;;;28.13;56.33
38786;BME280;24535;45.508;12.252;2023-07-29T00:25:24;101212.38;;;28.11;56.14
38786;BME280;24535;45.508;12.252;2023-07-29T00:27:50;101212.38;;;28.11;55.31
38786;BME280;24535;45.508;12.252;2023-07-29T00:30:15;101213.22;;;28.12;55.96
38786;BME280;24535;45.508;12.252;2023-07-29T00:32:40;101211.75;;;28.09;56.10
38786;BME280;24535;45.508;12.252;2023-07-29T00:35:06;101211.13;;;28.07;55.87
38786;BME280;24535;45.508;12.252;2023-07-29T00:37:31;101213.22;;;28.05;56.51
38786;BME280;24535;45.508;12.252;2023-07-29T00:39:57;101209.25;;;28.01;56.52
38786;BME280;24535;45.508;12.252;2023-07-29T00:42:23;101210.06;;;27.95;55.82
38786;BME280;24535;45.508;12.252;2023-07-29T00:44:49;101207.13;;;27.90;56.40
38786;BME280;24535;45.508;12.252;2023-07-29T00:47:14;101207.75;;;27.85;56.19
38786;BME280;24535;45.508;12.252;2023-07-29T00:49:40;101209.63;;;27.84;56.33
38786;BME280;24535;45.508;12.252;2023-07-29T00:52:06;101214.41;;;27.82;56.85
38786;BME280;24535;45.508;12.252;2023-07-29T00:54:31;101204.00;;;27.79;57.03
38786;BME280;24535;45.508;12.252;2023-07-29T00:56:57;101204.19;;;27.78;56.80
38786;BME280;24535;45.508;12.252;2023-07-29T00:59:22;101197.31;;;27.75;56.86
38786;BME280;24535;45.508;12.252;2023-07-29T01:01:48;101189.75;;;27.71;56.89
38786;BME280;24535;45.508;12.252;2023-07-29T01:04:13;101189.97;;;27.69;57.04
38786;BME280;24535;45.508;12.252;2023-07-29T01:09:25;101192.66;;;27.63;56.55
38786;BME280;24535;45.508;12.252;2023-07-29T01:11:58;101199.72;;;27.57;56.94
38786;BME280;24535;45.508;12.252;2023-07-29T01:14:28;101194.53;;;27.55;57.31
38786;BME280;24535;45.508;12.252;2023-07-29T01:17:03;101193.44;;;27.50;57.12
38786;BME280;24535;45.508;12.252;2023-07-29T01:21:57;101190.53;;;27.45;57.78
38786;BME280;24535;45.508;12.252;2023-07-29T01:24:23;101191.56;;;27.44;57.38
38786;BME280;24535;45.508;12.252;2023-07-29T01:26:48;101190.31;;;27.46;57.27
38786;BME280;24535;45.508;12.252;2023-07-29T01:29:14;101197.19;;;27.49;57.27
38786;BME280;24535;45.508;12.252;2023-07-29T01:31:41;101195.13;;;27.51;57.33
38786;BME280;24535;45.508;12.252;2023-07-29T01:34:51;101187.19;;;27.49;57.40
38786;BME280;24535;45.508;12.252;2023-07-29T01:36:57;101174.06;;;27.46;57.07
38786;BME280;24535;45.508;12.252;2023-07-29T01:39:23;101176.16;;;27.44;57.51
38786;BME280;24535;45.508;12.252;2023-07-29T01:41:50;101180.94;;;27.42;57.11
38786;BME280;24535;45.508;12.252;2023-07-29T01:44:15;101182.19;;;27.40;57.67
38786;BME280;24535;45.508;12.252;2023-07-29T01:46:41;101190.09;;;27.41;56.76
38786;BME280;24535;45.508;12.252;2023-07-29T01:49:09;101191.34;;;27.45;56.69
38786;BME280;24535;45.508;12.252;2023-07-29T01:51:34;101183.66;;;27.49;57.13
38786;BME280;24535;45.508;12.252;2023-07-29T01:53:59;101189.72;;;27.51;57.23
38786;BME280;24535;45.508;12.252;2023-07-29T01:56:25;101178.66;;;27.46;57.46
38786;BME280;24535;45.508;12.252;2023-07-29T01:58:50;101171.97;;;27.42;57.47
38786;BME280;24535;45.508;12.252;2023-07-29T02:01:16;101175.06;;;27.39;57.64
38786;BME280;24535;45.508;12.252;2023-07-29T02:03:41;101175.69;;;27.34;57.85
38786;BME280;24535;45.508;12.252;2023-07-29T02:06:06;101174.44;;;27.30;57.67
38786;BME280;24535;45.508;12.252;2023-07-29T02:08:32;101171.94;;;27.28;57.59
38786;BME280;24535;45.508;12.252;2023-07-29T02:10:57;101172.97;;;27.27;57.70
38786;BME280;24535;45.508;12.252;2023-07-29T02:13:23;101166.91;;;27.25;58.14
38786;BME280;24535;45.508;12.252;2023-07-29T02:15:48;101170.88;;;27.23;57.69
38786;BME280;24535;45.508;12.252;2023-07-29T02:18:14;101177.31;;;27.22;58.14
38786;BME280;24535;45.508;12.252;2023-07-29T02:20:39;101168.34;;;27.21;57.55
38786;BME280;24535;45.508;12.252;2023-07-29T02:23:04;101175.44;;;27.22;57.71
38786;BME280;24535;45.508;12.252;2023-07-29T02:25:30;101171.06;;;27.21;57.50
38786;BME280;24535;45.508;12.252;2023-07-29T02:27:55;101171.47;;;27.18;57.84
38786;BME280;24535;45.508;12.252;2023-07-29T02:30:21;101182.50;;;27.17;58.13
38786;BME280;24535;45.508;12.252;2023-07-29T02:32:46;101183.31;;;27.17;57.15
38786;BME280;24535;45.508;12.252;2023-07-29T02:35:12;101188.97;;;27.22;57.12
38786;BME280;24535;45.508;12.252;2023-07-29T02:37:37;101184.81;;;27.26;56.93
38786;BME280;24535;45.508;12.252;2023-07-29T02:40:02;101190.47;;;27.31;57.17
38786;BME280;24535;45.508;12.252;2023-07-29T02:42:28;101185.25;;;27.30;57.38
38786;BME280;24535;45.508;12.252;2023-07-29T02:44:54;101181.50;;;27.24;57.66
38786;BME280;24535;45.508;12.252;2023-07-29T02:47:19;101184.81;;;27.20;57.49
38786;BME280;24535;45.508;12.252;2023-07-29T02:49:44;101190.59;;;27.17;57.83
38786;BME280;24535;45.508;12.252;2023-07-29T02:52:10;101198.09;;;27.15;57.30
38786;BME280;24535;45.508;12.252;2023-07-29T02:54:35;101196.03;;;27.17;57.61
38786;BME280;24535;45.508;12.252;2023-07-29T02:57:01;101191.22;;;27.12;57.63
38786;BME280;24535;45.508;12.252;2023-07-29T02:59:26;101196.97;;;27.09;57.98
38786;BME280;24535;45.508;12.252;2023-07-29T03:01:52;101202.78;;;27.06;58.03
38786;BME280;24535;45.508;12.252;2023-07-29T03:04:18;101195.09;;;27.03;57.99
38786;BME280;24535;45.508;12.252;2023-07-29T03:06:43;101195.88;;;26.97;58.21
38786;BME280;24535;45.508;12.252;2023-07-29T03:09:09;101187.53;;;26.92;58.38
38786;BME280;24535;45.508;12.252;2023-07-29T03:11:34;101186.25;;;26.87;58.23
38786;BME280;24535;45.508;12.252;2023-07-29T03:14:00;101191.44;;;26.82;57.92
38786;BME280;24535;45.508;12.252;2023-07-29T03:16:25;101194.72;;;26.78;58.34
38786;BME280;24535;45.508;12.252;2023-07-29T03:18:51;101187.19;;;26.73;58.69
38786;BME280;24535;45.508;12.252;2023-07-29T03:21:16;101195.91;;;26.69;58.34
38786;BME280;24535;45.508;12.252;2023-07-29T03:23:42;101194.25;;;26.68;58.55
38786;BME280;24535;45.508;12.252;2023-07-29T03:26:07;101197.34;;;26.65;58.88
38786;BME280;24535;45.508;12.252;2023-07-29T03:28:37;101190.84;;;26.59;58.57
38786;BME280;24535;45.508;12.252;2023-07-29T03:31:03;101202.06;;;26.56;58.76
38786;BME280;24535;45.508;12.252;2023-07-29T03:33:28;101206.84;;;26.54;59.10
38786;BME280;24535;45.508;12.252;2023-07-29T03:35:53;101211.59;;;26.52;59.36
38786;BME280;24535;45.508;12.252;2023-07-29T03:38:19;101214.50;;;26.50;59.46
38786;BME280;24535;45.508;12.252;2023-07-29T03:40:44;101212.63;;;26.51;59.17
38786;BME280;24535;45.508;12.252;2023-07-29T03:43:09;101219.06;;;26.50;59.49
38786;BME280;24535;45.508;12.252;2023-07-29T03:45:35;101221.19;;;26.54;59.10
38786;BME280;24535;45.508;12.252;2023-07-29T03:48:01;101213.31;;;26.59;59.33
38786;BME280;24535;45.508;12.252;2023-07-29T03:50:26;101211.44;;;26.60;59.17
38786;BME280;24535;45.508;12.252;2023-07-29T03:52:51;101214.34;;;26.58;59.15
38786;BME280;24535;45.508;12.252;2023-07-29T03:55:17;101212.47;;;26.59;59.26
38786;BME280;24535;45.508;12.252;2023-07-29T03:57:43;101223.47;;;26.57;59.18
38786;BME280;24535;45.508;12.252;2023-07-29T04:00:08;101231.78;;;26.56;59.12
38786;BME280;24535;45.508;12.252;2023-07-29T04:02:34;101240.34;;;26.59;58.80
38786;BME280;24535;45.508;12.252;2023-07-29T04:05:02;101238.53;;;26.67;58.34
38786;BME280;24535;45.508;12.252;2023-07-29T04:07:28;101243.97;;;26.73;58.46
38786;BME280;24535;45.508;12.252;2023-07-29T04:09:53;101253.38;;;26.77;58.38
38786;BME280;24535;45.508;12.252;2023-07-29T04:12:18;101239.66;;;26.79;58.65
38786;BME280;24535;45.508;12.252;2023-07-29T04:14:46;101250.66;;;26.77;58.62
38786;BME280;24535;45.508;12.252;2023-07-29T04:17:11;101252.75;;;26.75;58.65
38786;BME280;24535;45.508;12.252;2023-07-29T04:19:37;101253.97;;;26.73;58.79
38786;BME280;24535;45.508;12.252;2023-07-29T04:22:02;101247.09;;;26.70;58.39
38786;BME280;24535;45.508;12.252;2023-07-29T04:24:27;101249.97;;;26.69;59.09
38786;BME280;24535;45.508;12.252;2023-07-29T04:26:53;101247.84;;;26.64;58.77
38786;BME280;24535;45.508;12.252;2023-07-29T04:29:18;101251.38;;;26.58;58.94
38786;BME280;24535;45.508;12.252;2023-07-29T04:31:43;101256.13;;;26.56;59.45
38786;BME280;24535;45.508;12.252;2023-07-29T04:34:09;101250.91;;;26.54;59.13
38786;BME280;24535;45.508;12.252;2023-07-29T04:36:34;101254.06;;;26.58;59.86
38786;BME280;24535;45.508;12.252;2023-07-29T04:39:00;101256.56;;;26.59;59.89
38786;BME280;24535;45.508;12.252;2023-07-29T04:41:25;101254.47;;;26.61;59.83
38786;BME280;24535;45.508;12.252;2023-07-29T04:43:50;101266.56;;;26.66;59.70
38786;BME280;24535;45.508;12.252;2023-07-29T04:46:16;101268.06;;;26.68;59.50
38786;BME280;24535;45.508;12.252;2023-07-29T04:48:41;101262.28;;;26.71;59.34
38786;BME280;24535;45.508;12.252;2023-07-29T04:51:06;101260.19;;;26.73;59.60
38786;BME280;24535;45.508;12.252;2023-07-29T04:53:32;101255.63;;;26.74;59.30
38786;BME280;24535;45.508;12.252;2023-07-29T04:55:58;101258.53;;;26.72;59.76
38786;BME280;24535;45.508;12.252;2023-07-29T04:58:23;101278.13;;;26.74;59.91
38786;BME280;24535;45.508;12.252;2023-07-29T05:00:49;101271.47;;;26.77;59.73
38786;BME280;24535;45.508;12.252;2023-07-29T05:03:14;101263.63;;;26.82;59.29
38786;BME280;24535;45.508;12.252;2023-07-29T05:05:40;101259.28;;;26.87;59.03
38786;BME280;24535;45.508;12.252;2023-07-29T05:08:05;101256.81;;;26.93;59.76
38786;BME280;24535;45.508;12.252;2023-07-29T05:10:31;101258.91;;;26.97;59.75
38786;BME280;24535;45.508;12.252;2023-07-29T05:12:56;101258.75;;;26.99;59.90
38786;BME280;24535;45.508;12.252;2023-07-29T05:15:22;101252.91;;;27.02;59.52
38786;BME280;24535;45.508;12.252;2023-07-29T05:17:47;101256.06;;;27.05;60.06
38786;BME280;24535;45.508;12.252;2023-07-29T05:20:12;101251.09;;;27.09;60.23
38786;BME280;24535;45.508;12.252;2023-07-29T05:22:37;101251.78;;;27.11;59.59
38786;BME280;24535;45.508;12.252;2023-07-29T05:25:03;101251.56;;;27.13;60.50
38786;BME280;24535;45.508;12.252;2023-07-29T05:27:28;101259.47;;;27.14;60.58
38786;BME280;24535;45.508;12.252;2023-07-29T05:29:54;101260.94;;;27.17;60.79
38786;BME280;24535;45.508;12.252;2023-07-29T05:32:19;101258.03;;;27.18;60.71
38786;BME280;24535;45.508;12.252;2023-07-29T05:34:44;101258.69;;;27.20;60.50
38786;BME280;24535;45.508;12.252;2023-07-29T05:37:10;101255.97;;;27.20;60.82
38786;BME280;24535;45.508;12.252;2023-07-29T05:39:35;101262.00;;;27.22;60.13
38786;BME280;24535;45.508;12.252;2023-07-29T05:42:00;101266.84;;;27.27;60.66
38786;BME280;24535;45.508;12.252;2023-07-29T05:44:27;101263.94;;;27.28;59.99
38786;BME280;24535;45.508;12.252;2023-07-29T05:46:53;101262.72;;;27.31;60.32
38786;BME280;24535;45.508;12.252;2023-07-29T05:49:18;101271.25;;;27.34;61.06
38786;BME280;24535;45.508;12.252;2023-07-29T05:51:43;101266.47;;;27.36;60.46
38786;BME280;24535;45.508;12.252;2023-07-29T05:54:09;101275.03;;;27.40;60.55
38786;BME280;24535;45.508;12.252;2023-07-29T05:56:34;101269.00;;;27.45;59.41
38786;BME280;24535;45.508;12.252;2023-07-29T05:58:59;101274.66;;;27.50;60.41
38786;BME280;24535;45.508;12.252;2023-07-29T06:01:25;101269.50;;;27.55;60.52
38786;BME280;24535;45.508;12.252;2023-07-29T06:03:51;101268.06;;;27.59;60.57
38786;BME280;24535;45.508;12.252;2023-07-29T06:06:16;101271.78;;;27.58;60.43
38786;BME280;24535;45.508;12.252;2023-07-29T06:08:42;101268.06;;;27.59;60.68
38786;BME280;24535;45.508;12.252;2023-07-29T06:11:07;101267.63;;;27.62;60.65
38786;BME280;24535;45.508;12.252;2023-07-29T06:13:32;101263.69;;;27.65;60.23
38786;BME280;24535;45.508;12.252;2023-07-29T06:15:58;101266.19;;;27.66;60.24
38786;BME280;24535;45.508;12.252;2023-07-29T06:18:24;101265.16;;;27.67;59.99
38786;BME280;24535;45.508;12.252;2023-07-29T06:20:49;101268.28;;;27.71;60.27
38786;BME280;24535;45.508;12.252;2023-07-29T06:23:15;101265.22;;;27.74;60.39
38786;BME280;24535;45.508;12.252;2023-07-29T06:25:40;101266.88;;;27.75;60.02
38786;BME280;24535;45.508;12.252;2023-07-29T06:28:05;101273.97;;;27.76;59.85
38786;BME280;24535;45.508;12.252;2023-07-29T06:30:31;101283.75;;;27.77;59.95
38786;BME280;24535;45.508;12.252;2023-07-29T06:32:56;101282.31;;;27.81;59.76
38786;BME280;24535;45.508;12.252;2023-07-29T06:35:22;101289.22;;;27.83;59.60
38786;BME280;24535;45.508;12.252;2023-07-29T06:37:47;101281.31;;;27.89;59.60
38786;BME280;24535;45.508;12.252;2023-07-29T06:40:12;101279.25;;;27.97;59.03
38786;BME280;24535;45.508;12.252;2023-07-29T06:42:38;101271.16;;;28.04;59.65
38786;BME280;24535;45.508;12.252;2023-07-29T06:45:04;101276.78;;;28.09;59.36
38786;BME280;24535;45.508;12.252;2023-07-29T06:47:30;101278.03;;;28.13;58.97
38786;BME280;24535;45.508;12.252;2023-07-29T06:49:55;101269.28;;;28.18;59.11
38786;BME280;24535;45.508;12.252;2023-07-29T06:52:21;101271.59;;;28.21;58.80
38786;BME280;24535;45.508;12.252;2023-07-29T06:54:46;101276.81;;;28.29;58.83
38786;BME280;24535;45.508;12.252;2023-07-29T06:57:11;101282.50;;;28.41;58.42
38786;BME280;24535;45.508;12.252;2023-07-29T06:59:37;101287.28;;;28.52;58.55
38786;BME280;24535;45.508;12.252;2023-07-29T07:02:02;101300.63;;;28.60;57.65
38786;BME280;24535;45.508;12.252;2023-07-29T07:04:27;101298.78;;;28.61;57.62
38786;BME280;24535;45.508;12.252;2023-07-29T07:06:53;101303.16;;;28.62;57.86
38786;BME280;24535;45.508;12.252;2023-07-29T07:09:19;101302.34;;;28.61;57.64
38786;BME280;24535;45.508;12.252;2023-07-29T07:11:44;101301.50;;;28.61;57.56
38786;BME280;24535;45.508;12.252;2023-07-29T07:14:09;101297.94;;;28.60;58.12
38786;BME280;24535;45.508;12.252;2023-07-29T07:16:35;101299.19;;;28.57;57.63
38786;BME280;24535;45.508;12.252;2023-07-29T07:19:02;101299.81;;;28.59;57.62
38786;BME280;24535;45.508;12.252;2023-07-29T07:21:28;101287.06;;;28.60;57.94
38786;BME280;24535;45.508;12.252;2023-07-29T07:23:53;101287.72;;;28.62;57.95
38786;BME280;24535;45.508;12.252;2023-07-29T07:26:18;101286.25;;;28.66;57.86
38786;BME280;24535;45.508;12.252;2023-07-29T07:28:44;101290.66;;;28.74;57.65
38786;BME280;24535;45.508;12.252;2023-07-29T07:31:09;101285.63;;;28.84;57.84
38786;BME280;24535;45.508;12.252;2023-07-29T07:33:35;101288.97;;;28.93;57.79
38786;BME280;24535;45.508;12.252;2023-07-29T07:36:00;101288.56;;;29.02;58.25
38786;BME280;24535;45.508;12.252;2023-07-29T07:38:25;101290.22;;;29.10;57.97
38786;BME280;24535;45.508;12.252;2023-07-29T07:40:54;101279.78;;;29.14;57.43
38786;BME280;24535;45.508;12.252;2023-07-29T07:43:23;101280.19;;;29.17;56.55
38786;BME280;24535;45.508;12.252;2023-07-29T07:45:48;101279.75;;;29.20;56.07
38786;BME280;24535;45.508;12.252;2023-07-29T07:48:14;101281.63;;;29.26;55.96
38786;BME280;24535;45.508;12.252;2023-07-29T07:50:41;101281.22;;;29.29;56.86
38786;BME280;24535;45.508;12.252;2023-07-29T07:53:06;101278.06;;;29.32;56.80
38786;BME280;24535;45.508;12.252;2023-07-29T07:55:32;101277.41;;;29.37;56.81
38786;BME280;24535;45.508;12.252;2023-07-29T07:57:57;101285.13;;;29.47;55.96
38786;BME280;24535;45.508;12.252;2023-07-29T08:00:22;101279.22;;;29.70;55.87
38786;BME280;24535;45.508;12.252;2023-07-29T08:02:47;101289.50;;;30.06;56.48
38786;BME280;24535;45.508;12.252;2023-07-29T08:05:13;101295.13;;;30.43;55.71
38786;BME280;24535;45.508;12.252;2023-07-29T08:07:38;101292.22;;;30.63;54.39
38786;BME280;24535;45.508;12.252;2023-07-29T08:10:04;101289.25;;;30.71;53.27
38786;BME280;24535;45.508;12.252;2023-07-29T08:12:29;101286.53;;;30.71;53.10
38786;BME280;24535;45.508;12.252;2023-07-29T08:14:55;101288.88;;;30.67;53.94
38786;BME280;24535;45.508;12.252;2023-07-29T08:17:20;101287.03;;;30.61;54.17
38786;BME280;24535;45.508;12.252;2023-07-29T08:19:46;101292.31;;;30.56;54.31
38786;BME280;24535;45.508;12.252;2023-07-29T08:22:11;101288.81;;;30.49;53.88
38786;BME280;24535;45.508;12.252;2023-07-29T08:24:36;101290.06;;;30.46;54.01
38786;BME280;24535;45.508;12.252;2023-07-29T08:27:02;101288.53;;;30.57;54.66
38786;BME280;24535;45.508;12.252;2023-07-29T08:29:27;101287.38;;;30.71;54.40
38786;BME280;24535;45.508;12.252;2023-07-29T08:31:52;101287.53;;;30.83;53.29
38786;BME280;24535;45.508;12.252;2023-07-29T08:34:18;101280.88;;;30.97;53.11
38786;BME280;24535;45.508;12.252;2023-07-29T08:36:43;101284.38;;;31.23;53.06
38786;BME280;24535;45.508;12.252;2023-07-29T08:39:11;101279.88;;;31.54;52.91
38786;BME280;24535;45.508;12.252;2023-07-29T08:44:21;101274.44;;;32.02;51.00
38786;BME280;24535;45.508;12.252;2023-07-29T08:46:50;101282.16;;;32.05;50.83
38786;BME280;24535;45.508;12.252;2023-07-29T08:49:16;101272.09;;;32.06;51.39
38786;BME280;24535;45.508;12.252;2023-07-29T08:51:46;101279.22;;;32.18;51.73
38786;BME280;24535;45.508;12.252;2023-07-29T08:54:13;101281.47;;;32.52;51.57
38786;BME280;24535;45.508;12.252;2023-07-29T08:56:40;101274.50;;;32.79;50.10
38786;BME280;24535;45.508;12.252;2023-07-29T08:59:05;101276.16;;;33.15;49.80
38786;BME280;24535;45.508;12.252;2023-07-29T09:01:32;101279.69;;;33.51;48.42
38786;BME280;24535;45.508;12.252;2023-07-29T09:04:00;101286.25;;;33.79;47.44
38786;BME280;24535;45.508;12.252;2023-07-29T09:06:26;101279.06;;;34.01;46.79
38786;BME280;24535;45.508;12.252;2023-07-29T09:08:53;101286.31;;;34.24;46.62
38786;BME280;24535;45.508;12.252;2023-07-29T09:11:21;101284.06;;;34.38;46.17
38786;BME280;24535;45.508;12.252;2023-07-29T09:13:47;101279.78;;;34.42;45.88
38786;BME280;24535;45.508;12.252;2023-07-29T09:16:12;101282.03;;;34.45;45.77
38786;BME280;24535;45.508;12.252;2023-07-29T09:18:38;101283.66;;;34.46;46.01
38786;BME280;24535;45.508;12.252;2023-07-29T09:21:03;101291.19;;;34.39;46.39
38786;BME280;24535;45.508;12.252;2023-07-29T09:23:38;101284.16;;;34.26;46.04
38786;BME280;24535;45.508;12.252;2023-07-29T09:26:06;101278.25;;;34.17;47.03
38786;BME280;24535;45.508;12.252;2023-07-29T09:28:36;101275.59;;;34.06;46.02
38786;BME280;24535;45.508;12.252;2023-07-29T09:31:01;101279.91;;;33.90;47.03
38786;BME280;24535;45.508;12.252;2023-07-29T09:33:27;101273.09;;;33.76;46.97
38786;BME280;24535;45.508;12.252;2023-07-29T09:35:52;101274.53;;;33.66;46.99
38786;BME280;24535;45.508;12.252;2023-07-29T09:38:18;101271.59;;;33.56;47.01
38786;BME280;24535;45.508;12.252;2023-07-29T09:40:50;101267.00;;;33.45;47.25
38786;BME280;24535;45.508;12.252;2023-07-29T09:43:19;101266.75;;;33.35;47.07
38786;BME280;24535;45.508;12.252;2023-07-29T09:45:51;101270.56;;;33.22;47.83
38786;BME280;24535;45.508;12.252;2023-07-29T09:48:17;101263.00;;;33.12;47.82
38786;BME280;24535;45.508;12.252;2023-07-29T09:50:44;101269.28;;;33.01;47.58
38786;BME280;24535;45.508;12.252;2023-07-29T09:53:12;101265.22;;;32.92;48.24
38786;BME280;24535;45.508;12.252;2023-07-29T09:55:37;101262.03;;;32.83;48.75
38786;BME280;24535;45.508;12.252;2023-07-29T09:58:03;101261.56;;;32.74;48.57
38786;BME280;24535;45.508;12.252;2023-07-29T10:00:33;101260.72;;;32.62;48.38
38786;BME280;24535;45.508;12.252;2023-07-29T10:02:58;101262.97;;;32.54;48.63
38786;BME280;24535;45.508;12.252;2023-07-29T10:05:28;101263.31;;;32.45;49.17
38786;BME280;24535;45.508;12.252;2023-07-29T10:07:54;101258.31;;;32.42;48.85
38786;BME280;24535;45.508;12.252;2023-07-29T10:10:19;101261.38;;;32.34;48.95
38786;BME280;24535;45.508;12.252;2023-07-29T10:12:45;101258.16;;;32.25;49.36
38786;BME280;24535;45.508;12.252;2023-07-29T10:15:11;101260.38;;;32.17;49.47
38786;BME280;24535;45.508;12.252;2023-07-29T10:17:36;101268.91;;;32.09;49.44
38786;BME280;24535;45.508;12.252;2023-07-29T10:20:09;101270.06;;;32.01;49.18
38786;BME280;24535;45.508;12.252;2023-07-29T10:22:39;101269.69;;;31.97;49.45
38786;BME280;24535;45.508;12.252;2023-07-29T10:25:07;101249.41;;;31.93;49.30
38786;BME280;24535;45.508;12.252;2023-07-29T10:27:42;101259.94;;;31.90;50.02
38786;BME280;24535;45.508;12.252;2023-07-29T10:30:08;101258.03;;;31.90;50.09
38786;BME280;24535;45.508;12.252;2023-07-29T10:32:34;101255.31;;;31.90;50.79
38786;BME280;24535;45.508;12.252;2023-07-29T10:34:59;101256.38;;;31.89;50.63
38786;BME280;24535;45.508;12.252;2023-07-29T10:37:24;101254.94;;;31.87;50.64
38786;BME280;24535;45.508;12.252;2023-07-29T10:39:54;101255.59;;;31.82;50.25
38786;BME280;24535;45.508;12.252;2023-07-29T10:42:19;101257.97;;;31.79;50.44
38786;BME280;24535;45.508;12.252;2023-07-29T10:44:45;101252.97;;;31.75;50.74
38786;BME280;24535;45.508;12.252;2023-07-29T10:47:12;101258.28;;;31.70;51.12
38786;BME280;24535;45.508;12.252;2023-07-29T10:49:41;101260.41;;;31.68;51.75
38786;BME280;24535;45.508;12.252;2023-07-29T10:52:06;101258.72;;;31.67;51.26
38786;BME280;24535;45.508;12.252;2023-07-29T10:54:31;101258.34;;;31.64;51.30
38786;BME280;24535;45.508;12.252;2023-07-29T10:57:06;101264.03;;;31.62;51.22
38786;BME280;24535;45.508;12.252;2023-07-29T10:59:32;101258.00;;;31.60;51.66
38786;BME280;24535;45.508;12.252;2023-07-29T11:01:59;101250.28;;;31.57;51.28
38786;BME280;24535;45.508;12.252;2023-07-29T11:04:27;101251.56;;;31.55;51.22
38786;BME280;24535;45.508;12.252;2023-07-29T11:14:50;101236.34;;;31.47;51.47
38786;BME280;24535;45.508;12.252;2023-07-29T11:17:15;101244.78;;;31.45;51.55
38786;BME280;24535;45.508;12.252;2023-07-29T11:19:41;101235.53;;;31.46;51.42
38786;BME280;24535;45.508;12.252;2023-07-29T11:22:06;101229.25;;;31.46;51.23
38786;BME280;24535;45.508;12.252;2023-07-29T11:24:32;101231.97;;;31.46;51.87
38786;BME280;24535;45.508;12.252;2023-07-29T11:26:57;101232.59;;;31.48;51.79
38786;BME280;24535;45.508;12.252;2023-07-29T11:29:23;101230.69;;;31.48;51.79
38786;BME280;24535;45.508;12.252;2023-07-29T11:31:51;101230.09;;;31.46;51.87
38786;BME280;24535;45.508;12.252;2023-07-29T11:34:16;101231.41;;;31.44;52.18
38786;BME280;24535;45.508;12.252;2023-07-29T11:36:45;101222.59;;;31.42;52.10
38786;BME280;24535;45.508;12.252;2023-07-29T11:39:11;101228.06;;;31.42;52.39
38786;BME280;24535;45.508;12.252;2023-07-29T11:41:36;101220.94;;;31.41;52.23
38786;BME280;24535;45.508;12.252;2023-07-29T11:44:02;101215.94;;;31.38;51.88
38786;BME280;24535;45.508;12.252;2023-07-29T11:46:27;101226.47;;;31.34;51.82
38786;BME280;24535;45.508;12.252;2023-07-29T11:48:56;101223.97;;;31.33;52.02
38786;BME280;24535;45.508;12.252;2023-07-29T11:51:21;101226.09;;;31.31;51.86
38786;BME280;24535;45.508;12.252;2023-07-29T11:53:47;101226.09;;;31.31;51.90
38786;BME280;24535;45.508;12.252;2023-07-29T11:56:12;101228.19;;;31.28;51.84
38786;BME280;24535;45.508;12.252;2023-07-29T11:58:38;101220.22;;;31.27;51.92
38786;BME280;24535;45.508;12.252;2023-07-29T12:01:03;101222.94;;;31.27;52.22
38786;BME280;24535;45.508;12.252;2023-07-29T12:03:28;101214.78;;;31.27;51.74
38786;BME280;24535;45.508;12.252;2023-07-29T12:05:54;101212.31;;;31.25;51.78
38786;BME280;24535;45.508;12.252;2023-07-29T12:08:20;101208.75;;;31.25;51.75
38786;BME280;24535;45.508;12.252;2023-07-29T12:10:45;101214.41;;;31.23;51.93
38786;BME280;24535;45.508;12.252;2023-07-29T12:13:12;101211.91;;;31.22;52.31
38786;BME280;24535;45.508;12.252;2023-07-29T12:15:37;101214.66;;;31.22;52.38
38786;BME280;24535;45.508;12.252;2023-07-29T12:18:03;101213.19;;;31.19;52.06
38786;BME280;24535;45.508;12.252;2023-07-29T12:20:31;101207.16;;;31.17;51.84
38786;BME280;24535;45.508;12.252;2023-07-29T12:22:57;101205.72;;;31.15;52.00
38786;BME280;24535;45.508;12.252;2023-07-29T12:25:23;101211.41;;;31.13;52.08
38786;BME280;24535;45.508;12.252;2023-07-29T12:27:49;101198.03;;;31.12;52.09
38786;BME280;24535;45.508;12.252;2023-07-29T12:30:14;101200.75;;;31.12;52.36
38786;BME280;24535;45.508;12.252;2023-07-29T12:32:46;101203.09;;;31.08;52.12
38786;BME280;24535;45.508;12.252;2023-07-29T12:35:12;101205.44;;;31.05;52.14
38786;BME280;24535;45.508;12.252;2023-07-29T12:37:37;101206.69;;;31.02;52.38
38786;BME280;24535;45.508;12.252;2023-07-29T12:40:04;101205.06;;;31.01;52.58
38786;BME280;24535;45.508;12.252;2023-07-29T12:42:29;101194.16;;;31.01;52.99
38786;BME280;24535;45.508;12.252;2023-07-29T12:44:55;101195.00;;;31.01;52.86
38786;BME280;24535;45.508;12.252;2023-07-29T12:47:20;101185.75;;;31.02;53.11
38786;BME280;24535;45.508;12.252;2023-07-29T12:49:46;101184.72;;;31.03;52.81